createdAt,value
2023-04-17T00:02:10.648Z,17.05
2023-04-17T00:04:40.910Z,17.63
2023-04-17T00:07:09.511Z,17.40
2023-04-17T00:09:37.632Z,17.42
2023-04-17T00:12:08.116Z,18.33
2023-04-17T00:14:36.008Z,17.65
2023-04-17T00:17:05.007Z,17.40
2023-04-17T00:19:32.681Z,17.58
2023-04-17T00:22:00.372Z,17.02
2023-04-17T00:24:27.944Z,17.65
2023-04-17T00:26:57.136Z,17.60
2023-04-17T00:29:26.239Z,17.15
2023-04-17T00:31:55.060Z,17.55
2023-04-17T00:34:23.618Z,17.25
2023-04-17T00:36:51.601Z,16.67
2023-04-17T00:39:19.155Z,17.33
2023-04-17T00:41:46.751Z,17.55
2023-04-17T00:44:14.468Z,16.42
2023-04-17T00:46:43.668Z,17.83
2023-04-17T00:49:13.207Z,16.45
2023-04-17T00:51:41.084Z,16.30
2023-04-17T00:54:12.035Z,16.85
2023-04-17T00:56:39.709Z,16.75
2023-04-17T00:59:11.661Z,17.55
2023-04-17T01:01:39.725Z,16.42
2023-04-17T01:04:09.927Z,18.08
2023-04-17T01:06:38.016Z,17.70
2023-04-17T01:09:07.620Z,17.23
2023-04-17T01:11:36.206Z,18.25
2023-04-17T01:14:03.887Z,17.42
2023-04-17T01:16:31.593Z,17.02
2023-04-17T01:18:59.378Z,18.13
2023-04-17T01:21:29.018Z,17.80
2023-04-17T01:24:01.173Z,17.42
2023-04-17T01:26:33.447Z,17.60
2023-04-17T01:29:01.520Z,17.35
2023-04-17T01:31:31.454Z,18.20
2023-04-17T01:34:01.354Z,17.65
2023-04-17T01:36:29.324Z,17.40
2023-04-17T01:38:57.027Z,17.55
2023-04-17T01:41:24.706Z,17.85
2023-04-17T01:43:53.829Z,17.85
2023-04-17T01:46:21.611Z,18.20
2023-04-17T01:48:49.987Z,18.45
2023-04-17T01:51:17.619Z,18.55
2023-04-17T01:53:45.396Z,18.33
2023-04-17T01:56:14.015Z,18.73
2023-04-17T01:58:43.108Z,18.67
2023-04-17T02:01:12.149Z,18.17
2023-04-17T02:03:39.950Z,18.77
2023-04-17T02:06:07.928Z,19.15
2023-04-17T02:08:37.014Z,18.52
2023-04-17T02:11:05.030Z,18.95
2023-04-17T02:13:33.025Z,18.92
2023-04-17T02:16:02.113Z,18.15
2023-04-17T02:18:31.451Z,18.58
2023-04-17T02:21:01.129Z,18.63
2023-04-17T02:23:29.571Z,18.75
2023-04-17T02:25:58.147Z,18.15
2023-04-17T02:28:25.850Z,18.50
2023-04-17T02:30:53.602Z,18.73
2023-04-17T02:33:21.515Z,17.95
2023-04-17T02:35:52.025Z,17.63
2023-04-17T02:38:24.806Z,17.58
2023-04-17T02:40:52.397Z,18.00
2023-04-17T02:43:20.413Z,18.88
2023-04-17T02:45:49.018Z,17.50
2023-04-17T02:48:19.015Z,16.92
2023-04-17T02:50:51.873Z,17.52
2023-04-17T02:53:21.537Z,17.90
2023-04-17T02:55:51.004Z,17.45
2023-04-17T02:58:23.448Z,16.75
2023-04-17T03:00:53.047Z,16.25
2023-04-17T03:03:25.159Z,17.63
2023-04-17T03:06:19.486Z,17.02
2023-04-17T03:08:47.193Z,16.92
2023-04-17T03:11:15.039Z,17.27
2023-04-17T03:13:42.787Z,16.85
2023-04-17T03:16:10.440Z,16.70
2023-04-17T03:18:41.272Z,17.55
2023-04-17T03:21:10.100Z,17.27
2023-04-17T03:23:39.305Z,16.08
2023-04-17T03:26:08.487Z,16.63
2023-04-17T03:31:29.072Z,17.77
2023-04-17T03:33:56.741Z,17.67
2023-04-17T03:36:27.430Z,17.05
2023-04-17T03:38:57.666Z,17.45
2023-04-17T03:41:26.024Z,17.60
2023-04-17T03:43:58.425Z,17.33
2023-04-17T03:46:30.177Z,16.95
2023-04-17T03:48:57.903Z,18.30
2023-04-17T03:51:27.210Z,18.00
2023-04-17T03:53:58.743Z,17.50
2023-04-17T03:56:50.803Z,18.00
2023-04-17T03:59:19.211Z,17.05
2023-04-17T04:01:49.460Z,17.75
2023-04-17T04:04:21.285Z,17.70
2023-04-17T04:06:57.502Z,17.92
2023-04-17T04:09:29.139Z,17.55
2023-04-17T04:11:58.011Z,18.15
2023-04-17T04:14:26.942Z,17.55
2023-04-17T04:16:55.242Z,17.70
2023-04-17T04:19:25.013Z,18.77
2023-04-17T04:21:54.110Z,17.05
2023-04-17T04:24:26.016Z,17.92
2023-04-17T04:26:55.117Z,17.48
2023-04-17T04:29:29.039Z,18.33
2023-04-17T04:32:03.540Z,18.08
2023-04-17T04:34:42.135Z,17.98
2023-04-17T04:37:10.037Z,19.30
2023-04-17T04:39:41.383Z,18.52
2023-04-17T04:42:13.025Z,18.92
2023-04-17T04:45:18.900Z,18.52
2023-04-17T04:47:47.165Z,19.17
2023-04-17T04:50:14.905Z,19.83
2023-04-17T04:52:43.434Z,19.35
2023-04-17T04:55:26.623Z,20.48
2023-04-17T04:57:58.790Z,19.60
2023-04-17T05:00:27.336Z,18.83
2023-04-17T05:02:58.424Z,19.20
2023-04-17T05:05:27.150Z,19.55
2023-04-17T05:07:57.016Z,19.60
2023-04-17T05:10:29.623Z,19.27
2023-04-17T05:13:03.062Z,19.95
2023-04-17T05:15:31.034Z,19.40
2023-04-17T05:18:23.082Z,20.08
2023-04-17T05:20:51.009Z,20.05
2023-04-17T05:23:22.978Z,19.92
2023-04-17T05:25:54.025Z,20.00
2023-04-17T05:28:23.968Z,19.70
2023-04-17T05:30:56.148Z,20.17
2023-04-17T05:33:38.712Z,20.90
2023-04-17T05:36:07.925Z,21.08
2023-04-17T05:41:10.054Z,20.35
2023-04-17T05:43:43.170Z,21.70
2023-04-17T05:46:12.645Z,20.42
2023-04-17T05:48:44.116Z,21.45
2023-04-17T05:51:12.907Z,21.73
2023-04-17T05:53:40.862Z,21.38
2023-04-17T05:56:08.387Z,21.25
2023-04-17T05:58:36.794Z,21.70
2023-04-17T06:01:07.551Z,21.65
2023-04-17T06:03:36.165Z,22.90
2023-04-17T06:06:18.403Z,22.45
2023-04-17T06:08:46.041Z,22.33
2023-04-17T06:11:15.655Z,21.85
2023-04-17T06:13:43.985Z,21.25
2023-04-17T06:16:14.274Z,22.23
2023-04-17T06:18:42.919Z,22.73
2023-04-17T06:21:10.561Z,22.80
2023-04-17T06:23:38.148Z,22.63
2023-04-17T06:26:06.051Z,22.15
2023-04-17T06:28:33.705Z,22.40
2023-04-17T06:31:01.508Z,21.92
2023-04-17T06:33:33.913Z,23.17
2023-04-17T06:36:02.633Z,22.15
2023-04-17T06:38:51.574Z,22.20
2023-04-17T06:41:21.320Z,21.75
2023-04-17T06:43:49.017Z,23.00
2023-04-17T06:46:20.846Z,22.95
2023-04-17T06:48:52.092Z,22.48
2023-04-17T06:51:21.749Z,21.58
2023-04-17T06:53:50.052Z,22.58
2023-04-17T06:56:18.178Z,22.35
2023-04-17T06:58:45.854Z,22.40
2023-04-17T07:01:14.625Z,21.52
2023-04-17T07:03:43.892Z,21.60
2023-04-17T07:06:13.348Z,21.45
2023-04-17T07:08:40.970Z,21.88
2023-04-17T07:11:08.608Z,22.20
2023-04-17T07:13:36.270Z,21.95
2023-04-17T07:16:06.020Z,21.00
2023-04-17T07:18:34.347Z,22.05
2023-04-17T07:21:02.219Z,21.67
2023-04-17T07:23:31.293Z,21.77
2023-04-17T07:25:59.054Z,21.10
2023-04-17T07:28:30.630Z,19.83
2023-04-17T07:30:59.020Z,21.35
2023-04-17T07:33:26.758Z,20.55
2023-04-17T07:35:54.459Z,19.65
2023-04-17T07:38:23.153Z,19.63
2023-04-17T07:40:53.165Z,20.67
2023-04-17T07:43:20.748Z,20.70
2023-04-17T07:45:48.844Z,21.38
2023-04-17T07:48:18.400Z,19.38
2023-04-17T07:50:46.433Z,19.25
2023-04-17T07:53:14.023Z,18.90
2023-04-17T07:55:44.428Z,18.67
2023-04-17T07:58:16.349Z,18.55
2023-04-17T08:03:14.149Z,17.33
2023-04-17T08:05:43.013Z,16.95
2023-04-17T08:08:10.684Z,16.90
2023-04-17T08:10:40.146Z,15.63
2023-04-17T08:13:08.034Z,15.75
2023-04-17T08:15:39.672Z,15.80
2023-04-17T08:18:07.507Z,14.50
2023-04-17T08:20:35.566Z,14.20
2023-04-17T08:23:04.895Z,14.52
2023-04-17T08:25:32.778Z,13.68
2023-04-17T08:28:00.603Z,13.93
2023-04-17T08:30:28.669Z,13.70
2023-04-17T08:32:57.757Z,12.55
2023-04-17T08:35:27.435Z,13.05
2023-04-17T08:37:57.046Z,11.63
2023-04-17T08:40:27.112Z,11.98
2023-04-17T08:42:57.203Z,13.02
2023-04-17T08:45:25.641Z,11.50
2023-04-17T08:47:54.184Z,11.68
2023-04-17T08:50:23.462Z,11.55
2023-04-17T08:52:52.984Z,10.73
2023-04-17T08:55:48.080Z,10.52
2023-04-17T08:58:15.909Z,10.32
2023-04-17T09:00:45.203Z,10.50
2023-04-17T09:03:14.312Z,10.23
2023-04-17T09:05:45.947Z,9.00
2023-04-17T09:08:15.636Z,11.18
2023-04-17T09:10:45.595Z,10.15
2023-04-17T09:13:15.605Z,9.82
2023-04-17T09:15:44.949Z,10.77
2023-04-17T09:18:26.659Z,9.48
2023-04-17T09:21:01.026Z,9.48
2023-04-17T09:23:29.682Z,9.23
2023-04-17T09:26:08.530Z,9.52
2023-04-17T09:28:38.699Z,9.18
2023-04-17T09:31:08.827Z,9.82
2023-04-17T09:33:38.052Z,9.23
2023-04-17T09:36:22.735Z,8.25
2023-04-17T09:38:51.471Z,8.75
2023-04-17T09:41:27.208Z,9.45
2023-04-17T09:43:57.225Z,8.50
2023-04-17T09:46:38.071Z,7.22
2023-04-17T09:49:11.056Z,7.77
2023-04-17T09:51:40.794Z,8.45
2023-04-17T09:54:11.342Z,7.97
2023-04-17T09:56:41.129Z,8.32
2023-04-17T09:59:09.693Z,8.57
2023-04-17T10:01:39.868Z,8.55
2023-04-17T10:04:08.986Z,8.13
2023-04-17T10:06:37.761Z,8.10
2023-04-17T10:09:08.228Z,8.57
2023-04-17T10:11:38.625Z,7.57
2023-04-17T10:14:13.312Z,8.43
2023-04-17T10:19:38.577Z,7.20
2023-04-17T10:22:33.114Z,7.50
2023-04-17T10:25:23.304Z,6.80
2023-04-17T10:27:58.196Z,7.78
2023-04-17T10:30:50.934Z,7.03
2023-04-17T10:33:25.001Z,7.38
2023-04-17T10:35:54.063Z,7.63
2023-04-17T10:38:36.383Z,7.18
2023-04-17T10:41:09.108Z,19.40
2023-04-17T10:43:43.046Z,9.68
2023-04-17T10:46:14.524Z,6.72
2023-04-17T10:48:47.747Z,6.53
2023-04-17T10:51:40.804Z,6.70
2023-04-17T10:54:11.044Z,6.60
2023-04-17T10:56:43.165Z,7.15
2023-04-17T10:59:13.292Z,6.75
2023-04-17T11:02:00.754Z,6.13
2023-04-17T11:04:31.506Z,6.65
2023-04-17T11:06:59.613Z,6.80
2023-04-17T11:09:32.056Z,6.50
2023-04-17T11:12:02.637Z,6.53
2023-04-17T11:14:31.126Z,6.53
2023-04-17T11:17:02.802Z,5.80
2023-04-17T11:22:02.106Z,6.10
2023-04-17T11:24:31.366Z,6.78
2023-04-17T11:27:02.278Z,6.43
2023-04-17T11:29:55.103Z,5.97
2023-04-17T11:32:22.822Z,6.65
2023-04-17T11:34:52.152Z,7.05
2023-04-17T11:37:21.459Z,6.97
2023-04-17T11:39:50.235Z,7.18
2023-04-17T11:42:28.173Z,7.28
2023-04-17T11:45:04.838Z,7.28
2023-04-17T11:47:32.868Z,7.07
2023-04-17T11:50:00.507Z,7.82
2023-04-17T11:52:29.651Z,7.70
2023-04-17T11:54:59.186Z,8.00
2023-04-17T11:57:28.745Z,7.10
2023-04-17T11:59:56.472Z,8.63
2023-04-17T12:02:33.410Z,7.05
2023-04-17T12:05:14.444Z,6.93
2023-04-17T12:07:42.137Z,6.40
2023-04-17T12:10:11.141Z,6.95
2023-04-17T12:12:40.239Z,7.03
2023-04-17T12:15:09.140Z,6.53
2023-04-17T12:17:36.753Z,7.45
2023-04-17T12:20:04.876Z,6.80
2023-04-17T12:22:33.208Z,7.20
2023-04-17T12:25:01.068Z,7.15
2023-04-17T12:27:56.969Z,6.35
2023-04-17T12:30:26.156Z,6.93
2023-04-17T12:32:55.104Z,6.72
2023-04-17T12:35:24.008Z,5.63
2023-04-17T12:37:52.189Z,5.80
2023-04-17T12:40:23.829Z,5.70
2023-04-17T12:42:53.471Z,6.03
2023-04-17T12:45:22.471Z,6.15
2023-04-17T12:47:50.983Z,6.50
2023-04-17T12:50:18.591Z,6.15
2023-04-17T12:52:46.289Z,6.25
2023-04-17T12:55:13.874Z,6.03
2023-04-17T12:57:41.472Z,6.38
2023-04-17T13:00:10.759Z,6.28
2023-04-17T13:02:40.051Z,6.10
2023-04-17T13:05:08.227Z,6.10
2023-04-17T13:07:37.474Z,6.05
2023-04-17T13:10:06.324Z,6.53
2023-04-17T13:12:36.047Z,6.47
2023-04-17T13:15:05.399Z,5.72
2023-04-17T13:17:33.041Z,6.15
2023-04-17T13:20:02.059Z,6.75
2023-04-17T13:22:30.448Z,5.93
2023-04-17T13:25:00.171Z,6.05
2023-04-17T13:27:27.875Z,6.03
2023-04-17T13:29:56.181Z,6.32
2023-04-17T13:32:24.632Z,6.75
2023-04-17T13:34:54.370Z,6.30
2023-04-17T13:37:25.069Z,6.28
2023-04-17T13:39:53.172Z,6.32
2023-04-17T13:42:21.077Z,5.90
2023-04-17T13:44:49.319Z,6.03
2023-04-17T13:47:17.065Z,5.90
2023-04-17T13:49:48.064Z,6.10
2023-04-17T13:52:19.059Z,6.38
2023-04-17T13:54:47.932Z,6.70
2023-04-17T13:57:18.292Z,6.15
2023-04-17T13:59:45.994Z,5.93
2023-04-17T14:02:14.185Z,6.97
2023-04-17T14:04:42.400Z,6.32
2023-04-17T14:07:15.278Z,6.40
2023-04-17T14:09:42.893Z,6.22
2023-04-17T14:12:11.779Z,6.50
2023-04-17T14:14:40.079Z,5.90
2023-04-17T14:17:08.089Z,6.22
2023-04-17T14:19:35.728Z,6.25
2023-04-17T14:22:04.204Z,6.00
2023-04-17T14:24:31.765Z,5.78
2023-04-17T14:26:59.511Z,6.38
2023-04-17T14:29:53.760Z,6.05
2023-04-17T14:32:22.090Z,5.72
2023-04-17T14:34:49.632Z,5.80
2023-04-17T14:37:17.355Z,5.85
2023-04-17T14:39:45.512Z,5.60
2023-04-17T14:42:13.195Z,5.78
2023-04-17T14:44:42.072Z,5.00
2023-04-17T14:47:13.535Z,5.45
2023-04-17T14:49:41.266Z,6.55
2023-04-17T14:52:09.702Z,6.95
2023-04-17T14:54:37.315Z,6.22
2023-04-17T14:57:05.103Z,6.57
2023-04-17T14:59:34.163Z,6.35
2023-04-17T15:02:03.107Z,6.63
2023-04-17T15:04:32.214Z,6.32
2023-04-17T15:07:00.606Z,6.30
2023-04-17T15:09:29.072Z,7.50
2023-04-17T15:11:57.788Z,7.00
2023-04-17T15:14:25.801Z,7.20
2023-04-17T15:16:54.473Z,6.55
2023-04-17T15:19:22.122Z,7.32
2023-04-17T15:21:51.270Z,7.50
2023-04-17T15:24:18.822Z,7.55
2023-04-17T15:26:51.196Z,7.13
2023-04-17T15:29:18.904Z,7.13
2023-04-17T15:31:46.542Z,7.55
2023-04-17T15:34:14.237Z,7.45
2023-04-17T15:36:44.070Z,6.93
2023-04-17T15:39:13.113Z,7.40
2023-04-17T15:41:41.712Z,7.63
2023-04-17T15:44:09.281Z,7.45
2023-04-17T15:46:38.243Z,7.22
2023-04-17T15:49:09.235Z,7.10
2023-04-17T15:51:38.563Z,6.63
2023-04-17T15:54:08.280Z,7.22
2023-04-17T15:56:40.289Z,6.82
2023-04-17T15:59:08.242Z,7.10
2023-04-17T16:01:35.891Z,7.00
2023-04-17T16:04:05.611Z,7.47
2023-04-17T16:06:34.564Z,7.00
2023-04-17T16:09:03.390Z,6.22
2023-04-17T16:11:57.734Z,6.57
2023-04-17T16:14:27.111Z,6.47
2023-04-17T16:16:54.714Z,6.60
2023-04-17T16:19:22.509Z,6.13
2023-04-17T16:21:50.133Z,6.30
2023-04-17T16:24:17.720Z,6.45
2023-04-17T16:26:46.083Z,6.10
2023-04-17T16:29:16.086Z,6.85
2023-04-17T16:31:43.721Z,6.00
2023-04-17T16:34:12.402Z,6.38
2023-04-17T16:39:12.855Z,7.07
2023-04-17T16:41:41.781Z,6.68
2023-04-17T16:44:09.435Z,6.85
2023-04-17T16:49:11.396Z,6.63
2023-04-17T16:51:39.279Z,6.32
2023-04-17T16:54:06.844Z,6.53
2023-04-17T16:56:34.706Z,6.18
2023-04-17T16:59:04.078Z,6.45
2023-04-17T17:01:31.941Z,6.38
2023-04-17T17:04:00.980Z,5.68
2023-04-17T17:06:29.137Z,6.13
2023-04-17T17:08:56.888Z,5.82
2023-04-17T17:11:25.116Z,6.10
2023-04-17T17:13:54.190Z,6.63
2023-04-17T17:16:22.743Z,6.40
2023-04-17T17:18:50.947Z,6.43
2023-04-17T17:21:19.880Z,5.90
2023-04-17T17:23:47.550Z,5.95
2023-04-17T17:26:16.866Z,6.50
2023-04-17T17:28:50.645Z,6.32
2023-04-17T17:31:18.599Z,6.10
2023-04-17T17:33:50.411Z,6.28
2023-04-17T17:38:47.448Z,6.25
2023-04-17T17:41:16.597Z,6.22
2023-04-17T17:43:44.480Z,6.55
2023-04-17T17:46:12.527Z,6.72
2023-04-17T17:48:40.179Z,7.15
2023-04-17T17:51:08.093Z,6.78
2023-04-17T17:53:36.502Z,6.78
2023-04-17T17:56:05.967Z,6.65
2023-04-17T17:58:34.262Z,6.63
2023-04-17T18:01:02.246Z,6.60
2023-04-17T18:03:30.261Z,6.93
2023-04-17T18:05:57.904Z,7.47
2023-04-17T18:08:27.194Z,6.80
2023-04-17T18:10:56.691Z,7.18
2023-04-17T18:13:25.931Z,6.53
2023-04-17T18:15:53.521Z,7.20
2023-04-17T18:18:21.080Z,6.78
2023-04-17T18:20:48.729Z,7.00
2023-04-17T18:23:16.356Z,7.22
2023-04-17T18:25:44.907Z,6.95
2023-04-17T18:28:12.462Z,7.32
2023-04-17T18:30:42.229Z,7.15
2023-04-17T18:33:10.747Z,6.57
2023-04-17T18:35:38.268Z,7.50
2023-04-17T18:38:08.244Z,7.20
2023-04-17T18:40:36.409Z,7.13
2023-04-17T18:43:05.989Z,7.40
2023-04-17T18:45:33.801Z,7.10
2023-04-17T18:48:02.942Z,7.13
2023-04-17T18:50:30.599Z,7.70
2023-04-17T18:52:58.180Z,7.28
2023-04-17T18:55:29.650Z,7.20
2023-04-17T18:57:58.237Z,7.88
2023-04-17T19:00:26.022Z,7.82
2023-04-17T19:02:53.776Z,7.32
2023-04-17T19:05:23.302Z,8.35
2023-04-17T19:07:51.774Z,8.15
2023-04-17T19:10:20.092Z,7.72
2023-04-17T19:12:47.806Z,7.90
2023-04-17T19:15:17.539Z,7.68
2023-04-17T19:17:45.275Z,7.85
2023-04-17T19:20:13.206Z,7.40
2023-04-17T19:22:42.093Z,7.53
2023-04-17T19:25:10.530Z,7.22
2023-04-17T19:27:38.167Z,6.60
2023-04-17T19:30:10.333Z,7.20
2023-04-17T19:32:38.565Z,7.30
2023-04-17T19:35:07.796Z,7.57
2023-04-17T19:37:36.102Z,7.38
2023-04-17T19:40:14.185Z,7.00
2023-04-17T19:42:49.589Z,6.60
2023-04-17T19:45:17.320Z,7.07
2023-04-17T19:47:45.217Z,6.97
2023-04-17T19:50:13.077Z,6.57
2023-04-17T19:52:42.953Z,6.63
2023-04-17T19:55:12.394Z,6.50
2023-04-17T19:57:41.893Z,7.75
2023-04-17T20:00:10.699Z,6.35
2023-04-17T20:02:41.468Z,6.82
2023-04-17T20:05:10.709Z,6.20
2023-04-17T20:07:38.244Z,6.78
2023-04-17T20:10:06.854Z,7.18
2023-04-17T20:12:36.202Z,6.57
2023-04-17T20:15:03.839Z,6.60
2023-04-17T20:17:31.559Z,7.00
2023-04-17T20:19:59.083Z,6.50
2023-04-17T20:22:27.020Z,6.88
2023-04-17T20:24:54.621Z,6.22
2023-04-17T20:27:23.114Z,6.90
2023-04-17T20:29:51.983Z,6.60
2023-04-17T20:32:20.198Z,6.55
2023-04-17T20:34:47.823Z,6.72
2023-04-17T20:37:15.440Z,6.57
2023-04-17T20:39:44.232Z,6.68
2023-04-17T20:42:11.868Z,6.72
2023-04-17T20:44:39.479Z,6.68
2023-04-17T20:47:08.914Z,7.03
2023-04-17T20:49:38.092Z,6.57
2023-04-17T20:52:06.119Z,6.85
2023-04-17T20:54:33.735Z,6.72
2023-04-17T20:57:02.210Z,6.43
2023-04-17T20:59:30.780Z,5.80
2023-04-17T21:01:58.542Z,6.70
2023-04-17T21:04:28.137Z,5.97
2023-04-17T21:06:57.108Z,6.60
2023-04-17T21:09:26.150Z,6.32
2023-04-17T21:11:53.712Z,5.50
2023-04-17T21:14:21.463Z,5.80
2023-04-17T21:16:49.019Z,6.13
2023-04-17T21:19:16.644Z,5.43
2023-04-17T21:21:45.771Z,5.68
2023-04-17T21:24:13.678Z,5.80
2023-04-17T21:26:41.477Z,5.50
2023-04-17T21:29:09.234Z,5.45
2023-04-17T21:31:36.854Z,5.35
2023-04-17T21:34:04.667Z,5.40
2023-04-17T21:36:32.276Z,5.88
2023-04-17T21:39:01.264Z,6.10
2023-04-17T21:41:31.694Z,5.95
2023-04-17T21:44:00.372Z,5.40
2023-04-17T21:46:28.073Z,6.20
2023-04-17T21:48:56.013Z,6.05
2023-04-17T21:51:24.704Z,5.50
2023-04-17T21:53:53.124Z,5.53
2023-04-17T21:56:23.834Z,5.93
2023-04-17T21:58:52.178Z,5.80
2023-04-17T22:01:19.846Z,5.85
2023-04-17T22:03:47.705Z,5.93
2023-04-17T22:06:15.590Z,6.25
2023-04-17T22:08:43.124Z,5.90
2023-04-17T22:11:11.161Z,5.82
2023-04-17T22:13:40.034Z,6.20
2023-04-17T22:16:07.824Z,6.10
2023-04-17T22:18:36.180Z,6.28
2023-04-17T22:21:05.323Z,5.78
2023-04-17T22:23:32.916Z,5.93
2023-04-17T22:26:02.104Z,6.32
2023-04-17T22:28:30.811Z,6.05
2023-04-17T22:31:00.289Z,6.18
2023-04-17T22:33:27.935Z,5.95
2023-04-17T22:35:55.531Z,5.90
2023-04-17T22:38:23.128Z,5.80
2023-04-17T22:40:50.813Z,5.43
2023-04-17T22:43:18.411Z,5.68
2023-04-17T22:45:46.248Z,6.07
2023-04-17T22:48:15.136Z,5.95
2023-04-17T22:50:42.758Z,5.60
2023-04-17T22:53:10.347Z,5.30
2023-04-17T22:55:37.874Z,6.07
2023-04-17T22:58:06.102Z,5.38
2023-04-17T23:00:33.677Z,5.53
2023-04-17T23:03:01.268Z,5.45
2023-04-17T23:05:30.218Z,5.50
2023-04-17T23:07:58.067Z,5.60
2023-04-17T23:10:25.570Z,5.60
2023-04-17T23:12:53.054Z,5.30
2023-04-17T23:15:24.306Z,5.18
2023-04-17T23:17:51.968Z,5.40
2023-04-17T23:20:20.211Z,5.45
2023-04-17T23:22:49.053Z,5.00
2023-04-17T23:25:16.763Z,5.05
2023-04-17T23:27:45.146Z,4.80
2023-04-17T23:30:13.607Z,4.80
2023-04-17T23:32:41.652Z,4.65
2023-04-17T23:35:11.192Z,4.93
2023-04-17T23:37:40.113Z,5.13
2023-04-17T23:40:10.404Z,4.78
2023-04-17T23:42:39.118Z,4.97
2023-04-17T23:45:07.869Z,4.75
2023-04-17T23:47:35.756Z,5.15
2023-04-17T23:50:05.214Z,4.65
2023-04-17T23:52:35.270Z,4.80
2023-04-17T23:55:03.674Z,4.90
2023-04-17T23:57:34.534Z,4.75
